sensor_id;sensor_type;location;lat;lon;timestamp;pressure;altitude;pressure_sealevel;temperature;humidity
58668;BME280;59852;43.086;25.634;2023-05-23T00:02:19;98625.34;;;13.25;87.63
58668;BME280;59852;43.086;25.634;2023-05-23T00:04:45;98626.28;;;13.03;88.54
58668;BME280;59852;43.086;25.634;2023-05-23T00:07:10;98631.03;;;13.09;88.18
58668;BME280;59852;43.086;25.634;2023-05-23T00:09:35;98622.91;;;13.12;88.32
58668;BME280;59852;43.086;25.634;2023-05-23T00:12:01;98623.03;;;13.10;88.24
58668;BME280;59852;43.086;25.634;2023-05-23T00:14:27;98617.31;;;13.05;88.22
58668;BME280;59852;43.086;25.634;2023-05-23T00:16:55;98617.19;;;13.07;88.09
58668;BME280;59852;43.086;25.634;2023-05-23T00:19:20;98621.78;;;13.14;88.08
58668;BME280;59852;43.086;25.634;2023-05-23T00:21:46;98615.31;;;12.98;88.14
58668;BME280;59852;43.086;25.634;2023-05-23T00:24:15;98617.16;;;12.86;88.50
58668;BME280;59852;43.086;25.634;2023-05-23T00:26:42;98616.94;;;12.89;89.10
58668;BME280;59852;43.086;25.634;2023-05-23T00:29:08;98615.16;;;13.10;88.07
58668;BME280;59852;43.086;25.634;2023-05-23T00:31:39;98614.25;;;13.00;87.81
58668;BME280;59852;43.086;25.634;2023-05-23T00:34:06;98602.84;;;12.90;88.56
58668;BME280;59852;43.086;25.634;2023-05-23T00:36:31;98613.41;;;12.79;88.54
58668;BME280;59852;43.086;25.634;2023-05-23T00:39:01;98610.19;;;13.17;87.06
58668;BME280;59852;43.086;25.634;2023-05-23T00:41:26;98614.88;;;12.72;87.16
58668;BME280;59852;43.086;25.634;2023-05-23T00:43:54;98616.72;;;12.81;87.22
58668;BME280;59852;43.086;25.634;2023-05-23T00:46:20;98610.72;;;12.69;87.52
58668;BME280;59852;43.086;25.634;2023-05-23T00:48:46;98614.88;;;12.72;86.81
58668;BME280;59852;43.086;25.634;2023-05-23T00:51:12;98613.16;;;12.82;86.42
58668;BME280;59852;43.086;25.634;2023-05-23T00:53:37;98612.13;;;12.94;85.79
58668;BME280;59852;43.086;25.634;2023-05-23T00:56:03;98618.13;;;12.85;85.80
58668;BME280;59852;43.086;25.634;2023-05-23T00:58:28;98615.78;;;12.82;86.11
58668;BME280;59852;43.086;25.634;2023-05-23T01:00:54;98619.28;;;12.71;86.40
58668;BME280;59852;43.086;25.634;2023-05-23T01:03:19;98614.69;;;12.52;86.54
58668;BME280;59852;43.086;25.634;2023-05-23T01:05:45;98619.63;;;12.67;86.69
58668;BME280;59852;43.086;25.634;2023-05-23T01:08:10;98623.09;;;12.67;86.40
58668;BME280;59852;43.086;25.634;2023-05-23T01:10:36;98625.50;;;12.70;85.94
58668;BME280;59852;43.086;25.634;2023-05-23T01:20:40;98630.59;;;12.72;86.63
58668;BME280;59852;43.086;25.634;2023-05-23T01:28:02;98634.06;;;12.40;87.37
58668;BME280;59852;43.086;25.634;2023-05-23T01:30:29;98631.19;;;12.43;87.86
58668;BME280;59852;43.086;25.634;2023-05-23T01:32:56;98629.38;;;12.44;88.14
58668;BME280;59852;43.086;25.634;2023-05-23T01:35:24;98631.44;;;12.40;88.03
58668;BME280;59852;43.086;25.634;2023-05-23T01:37:51;98627.16;;;12.39;88.39
58668;BME280;59852;43.086;25.634;2023-05-23T01:40:16;98621.69;;;12.31;88.39
58668;BME280;59852;43.086;25.634;2023-05-23T01:42:42;98614.28;;;12.25;88.52
58668;BME280;59852;43.086;25.634;2023-05-23T01:45:08;98619.53;;;12.25;88.96
58668;BME280;59852;43.086;25.634;2023-05-23T01:47:33;98618.81;;;12.66;87.43
58668;BME280;59852;43.086;25.634;2023-05-23T01:49:59;98623.19;;;12.77;87.46
58668;BME280;59852;43.086;25.634;2023-05-23T01:52:25;98625.00;;;12.97;86.54
58668;BME280;59852;43.086;25.634;2023-05-23T01:54:51;98631.22;;;12.64;87.58
58668;BME280;59852;43.086;25.634;2023-05-23T01:57:17;98623.00;;;12.57;88.23
58668;BME280;59852;43.086;25.634;2023-05-23T01:59:43;98623.63;;;12.61;87.46
58668;BME280;59852;43.086;25.634;2023-05-23T02:02:09;98623.28;;;12.54;88.04
58668;BME280;59852;43.086;25.634;2023-05-23T02:04:35;98625.91;;;12.54;87.73
58668;BME280;59852;43.086;25.634;2023-05-23T02:07:00;98630.56;;;12.51;87.29
58668;BME280;59852;43.086;25.634;2023-05-23T02:09:25;98630.44;;;12.52;87.52
58668;BME280;59852;43.086;25.634;2023-05-23T02:11:51;98630.78;;;12.48;87.20
58668;BME280;59852;43.086;25.634;2023-05-23T02:14:16;98635.72;;;12.41;87.47
58668;BME280;59852;43.086;25.634;2023-05-23T02:16:42;98635.50;;;12.33;87.40
58668;BME280;59852;43.086;25.634;2023-05-23T02:19:08;98637.28;;;12.32;88.32
58668;BME280;59852;43.086;25.634;2023-05-23T02:21:34;98636.91;;;12.37;88.34
58668;BME280;59852;43.086;25.634;2023-05-23T02:23:59;98637.69;;;12.60;87.61
58668;BME280;59852;43.086;25.634;2023-05-23T02:26:25;98639.72;;;12.56;87.64
58668;BME280;59852;43.086;25.634;2023-05-23T02:28:51;98638.06;;;12.55;88.06
58668;BME280;59852;43.086;25.634;2023-05-23T02:31:16;98642.88;;;12.39;88.40
58668;BME280;59852;43.086;25.634;2023-05-23T02:33:42;98642.63;;;12.42;88.73
58668;BME280;59852;43.086;25.634;2023-05-23T02:36:07;98640.88;;;12.31;88.33
58668;BME280;59852;43.086;25.634;2023-05-23T02:38:32;98640.78;;;12.11;89.60
58668;BME280;59852;43.086;25.634;2023-05-23T02:40:58;98643.47;;;12.43;87.34
58668;BME280;59852;43.086;25.634;2023-05-23T02:43:24;98638.59;;;12.27;87.26
58668;BME280;59852;43.086;25.634;2023-05-23T02:45:50;98641.38;;;12.14;88.43
58668;BME280;59852;43.086;25.634;2023-05-23T02:48:15;98636.22;;;12.24;87.36
58668;BME280;59852;43.086;25.634;2023-05-23T02:50:41;98638.19;;;12.11;87.68
58668;BME280;59852;43.086;25.634;2023-05-23T02:53:06;98644.47;;;12.08;88.18
58668;BME280;59852;43.086;25.634;2023-05-23T02:55:31;98643.41;;;12.11;87.81
58668;BME280;59852;43.086;25.634;2023-05-23T02:57:57;98644.25;;;12.11;86.99
58668;BME280;59852;43.086;25.634;2023-05-23T03:00:25;98641.72;;;12.32;86.18
58668;BME280;59852;43.086;25.634;2023-05-23T03:02:51;98635.16;;;12.15;86.55
58668;BME280;59852;43.086;25.634;2023-05-23T03:05:17;98639.97;;;12.10;87.07
58668;BME280;59852;43.086;25.634;2023-05-23T03:07:42;98628.38;;;12.24;86.30
58668;BME280;59852;43.086;25.634;2023-05-23T03:10:08;98634.94;;;12.29;85.96
58668;BME280;59852;43.086;25.634;2023-05-23T03:12:33;98638.84;;;12.24;86.29
58668;BME280;59852;43.086;25.634;2023-05-23T03:14:59;98631.44;;;12.29;86.25
58668;BME280;59852;43.086;25.634;2023-05-23T03:17:24;98638.28;;;11.98;87.41
58668;BME280;59852;43.086;25.634;2023-05-23T03:19:50;98638.28;;;11.87;88.74
58668;BME280;59852;43.086;25.634;2023-05-23T03:22:15;98643.53;;;12.20;87.17
58668;BME280;59852;43.086;25.634;2023-05-23T03:24:40;98639.09;;;12.21;86.80
58668;BME280;59852;43.086;25.634;2023-05-23T03:27:06;98647.72;;;12.00;88.55
58668;BME280;59852;43.086;25.634;2023-05-23T03:29:31;98639.69;;;11.68;89.96
58668;BME280;59852;43.086;25.634;2023-05-23T03:31:57;98641.13;;;12.06;89.10
58668;BME280;59852;43.086;25.634;2023-05-23T03:34:22;98647.16;;;12.29;88.22
58668;BME280;59852;43.086;25.634;2023-05-23T03:36:48;98658.72;;;12.49;86.71
58668;BME280;59852;43.086;25.634;2023-05-23T03:39:13;98653.34;;;12.50;85.52
58668;BME280;59852;43.086;25.634;2023-05-23T03:41:38;98660.38;;;12.50;85.02
58668;BME280;59852;43.086;25.634;2023-05-23T03:44:04;98652.31;;;12.30;85.18
58668;BME280;59852;43.086;25.634;2023-05-23T03:46:29;98658.63;;;12.39;85.15
58668;BME280;59852;43.086;25.634;2023-05-23T03:48:54;98661.13;;;12.41;85.33
58668;BME280;59852;43.086;25.634;2023-05-23T03:51:20;98655.22;;;12.48;85.26
58668;BME280;59852;43.086;25.634;2023-05-23T03:53:45;98654.81;;;12.32;85.90
58668;BME280;59852;43.086;25.634;2023-05-23T03:56:11;98657.19;;;12.35;85.77
58668;BME280;59852;43.086;25.634;2023-05-23T03:58:36;98660.88;;;12.44;85.36
58668;BME280;59852;43.086;25.634;2023-05-23T04:01:01;98656.44;;;12.44;85.33
58668;BME280;59852;43.086;25.634;2023-05-23T04:03:27;98658.59;;;12.50;84.81
58668;BME280;59852;43.086;25.634;2023-05-23T04:05:56;98665.59;;;12.61;85.27
58668;BME280;59852;43.086;25.634;2023-05-23T04:08:21;98670.03;;;12.49;85.47
58668;BME280;59852;43.086;25.634;2023-05-23T04:10:47;98657.75;;;12.39;85.51
58668;BME280;59852;43.086;25.634;2023-05-23T04:13:12;98676.69;;;12.53;85.57
58668;BME280;59852;43.086;25.634;2023-05-23T04:15:39;98669.00;;;12.29;86.50
58668;BME280;59852;43.086;25.634;2023-05-23T04:18:05;98669.00;;;12.29;88.54
58668;BME280;59852;43.086;25.634;2023-05-23T04:20:33;98676.81;;;12.52;86.97
58668;BME280;59852;43.086;25.634;2023-05-23T04:22:58;98676.78;;;12.63;85.81
58668;BME280;59852;43.086;25.634;2023-05-23T04:25:23;98676.34;;;12.47;87.19
58668;BME280;59852;43.086;25.634;2023-05-23T04:27:49;98672.25;;;11.88;90.43
58668;BME280;59852;43.086;25.634;2023-05-23T04:30:14;98681.00;;;12.54;88.42
58668;BME280;59852;43.086;25.634;2023-05-23T04:32:41;98684.19;;;12.69;86.27
58668;BME280;59852;43.086;25.634;2023-05-23T04:35:07;98685.59;;;12.73;86.06
58668;BME280;59852;43.086;25.634;2023-05-23T04:37:32;98689.88;;;12.20;87.84
58668;BME280;59852;43.086;25.634;2023-05-23T04:39:58;98691.63;;;12.42;88.33
58668;BME280;59852;43.086;25.634;2023-05-23T04:42:26;98690.16;;;12.60;87.04
58668;BME280;59852;43.086;25.634;2023-05-23T04:44:53;98690.44;;;12.78;86.64
58668;BME280;59852;43.086;25.634;2023-05-23T04:47:21;98689.25;;;12.82;86.03
58668;BME280;59852;43.086;25.634;2023-05-23T04:49:48;98692.53;;;12.95;85.86
58668;BME280;59852;43.086;25.634;2023-05-23T04:52:13;98688.88;;;13.18;85.39
58668;BME280;59852;43.086;25.634;2023-05-23T04:54:39;98695.59;;;13.11;85.04
58668;BME280;59852;43.086;25.634;2023-05-23T04:57:08;98688.84;;;13.30;85.18
58668;BME280;59852;43.086;25.634;2023-05-23T04:59:34;98694.94;;;13.51;84.91
58668;BME280;59852;43.086;25.634;2023-05-23T05:01:59;98697.81;;;13.69;83.17
58668;BME280;59852;43.086;25.634;2023-05-23T05:04:24;98695.41;;;13.66;83.47
58668;BME280;59852;43.086;25.634;2023-05-23T05:06:50;98692.84;;;13.96;82.58
58668;BME280;59852;43.086;25.634;2023-05-23T05:09:16;98688.16;;;14.10;83.14
58668;BME280;59852;43.086;25.634;2023-05-23T05:11:42;98694.59;;;13.96;83.50
58668;BME280;59852;43.086;25.634;2023-05-23T05:14:07;98697.16;;;14.07;84.55
58668;BME280;59852;43.086;25.634;2023-05-23T05:16:32;98693.97;;;14.13;83.46
58668;BME280;59852;43.086;25.634;2023-05-23T05:18:58;98696.00;;;14.30;83.04
58668;BME280;59852;43.086;25.634;2023-05-23T05:21:23;98698.06;;;14.27;82.23
58668;BME280;59852;43.086;25.634;2023-05-23T05:23:48;98695.03;;;14.31;83.47
58668;BME280;59852;43.086;25.634;2023-05-23T05:26:14;98696.47;;;14.45;83.61
58668;BME280;59852;43.086;25.634;2023-05-23T05:28:39;98697.19;;;14.47;83.27
58668;BME280;59852;43.086;25.634;2023-05-23T05:31:05;98694.44;;;14.68;83.18
58668;BME280;59852;43.086;25.634;2023-05-23T05:33:30;98701.38;;;14.69;83.35
58668;BME280;59852;43.086;25.634;2023-05-23T05:36:02;98705.34;;;14.54;83.13
58668;BME280;59852;43.086;25.634;2023-05-23T05:38:28;98702.63;;;14.65;82.89
58668;BME280;59852;43.086;25.634;2023-05-23T05:40:53;98698.44;;;14.62;82.78
58668;BME280;59852;43.086;25.634;2023-05-23T05:43:19;98696.41;;;14.76;82.24
58668;BME280;59852;43.086;25.634;2023-05-23T05:45:44;98695.84;;;14.82;82.39
58668;BME280;59852;43.086;25.634;2023-05-23T05:48:09;98701.78;;;14.84;82.82
58668;BME280;59852;43.086;25.634;2023-05-23T05:50:35;98705.16;;;14.96;81.85
58668;BME280;59852;43.086;25.634;2023-05-23T05:53:01;98700.84;;;14.95;82.82
58668;BME280;59852;43.086;25.634;2023-05-23T05:55:27;98698.63;;;15.00;82.81
58668;BME280;59852;43.086;25.634;2023-05-23T05:57:52;98704.19;;;15.16;82.07
58668;BME280;59852;43.086;25.634;2023-05-23T06:00:18;98702.94;;;15.20;82.22
58668;BME280;59852;43.086;25.634;2023-05-23T06:02:44;98706.38;;;15.30;82.10
58668;BME280;59852;43.086;25.634;2023-05-23T06:05:15;98702.38;;;15.36;81.70
58668;BME280;59852;43.086;25.634;2023-05-23T06:07:41;98697.50;;;15.41;81.95
58668;BME280;59852;43.086;25.634;2023-05-23T06:10:06;98699.56;;;15.47;81.70
58668;BME280;59852;43.086;25.634;2023-05-23T06:12:33;98698.59;;;15.58;81.27
58668;BME280;59852;43.086;25.634;2023-05-23T06:14:58;98698.44;;;15.59;81.90
58668;BME280;59852;43.086;25.634;2023-05-23T06:17:24;98699.13;;;15.71;81.21
58668;BME280;59852;43.086;25.634;2023-05-23T06:19:49;98692.16;;;15.80;81.25
58668;BME280;59852;43.086;25.634;2023-05-23T06:22:15;98702.31;;;15.84;81.14
58668;BME280;59852;43.086;25.634;2023-05-23T06:24:40;98703.72;;;15.59;83.31
58668;BME280;59852;43.086;25.634;2023-05-23T06:27:05;98706.03;;;15.82;81.49
58668;BME280;59852;43.086;25.634;2023-05-23T06:29:31;98704.88;;;16.03;82.09
58668;BME280;59852;43.086;25.634;2023-05-23T06:31:56;98695.53;;;16.09;80.90
58668;BME280;59852;43.086;25.634;2023-05-23T06:34:21;98694.41;;;16.12;80.66
58668;BME280;59852;43.086;25.634;2023-05-23T06:36:47;98695.59;;;15.90;81.46
58668;BME280;59852;43.086;25.634;2023-05-23T06:39:12;98703.31;;;15.73;82.36
58668;BME280;59852;43.086;25.634;2023-05-23T06:41:38;98705.84;;;16.30;81.33
58668;BME280;59852;43.086;25.634;2023-05-23T06:44:03;98701.91;;;16.61;80.58
58668;BME280;59852;43.086;25.634;2023-05-23T06:46:29;98699.53;;;16.41;80.50
58668;BME280;59852;43.086;25.634;2023-05-23T06:48:54;98692.47;;;16.69;80.57
58668;BME280;59852;43.086;25.634;2023-05-23T06:51:19;98684.09;;;16.73;79.89
58668;BME280;59852;43.086;25.634;2023-05-23T06:53:45;98690.16;;;16.83;79.48
58668;BME280;59852;43.086;25.634;2023-05-23T06:56:10;98691.81;;;16.84;79.28
58668;BME280;59852;43.086;25.634;2023-05-23T06:58:36;98688.44;;;16.64;80.46
58668;BME280;59852;43.086;25.634;2023-05-23T07:01:01;98687.66;;;17.00;79.08
58668;BME280;59852;43.086;25.634;2023-05-23T07:03:26;98687.97;;;17.14;79.10
58668;BME280;59852;43.086;25.634;2023-05-23T07:05:51;98687.72;;;17.26;79.40
58668;BME280;59852;43.086;25.634;2023-05-23T07:08:17;98687.72;;;17.26;78.83
58668;BME280;59852;43.086;25.634;2023-05-23T07:10:42;98681.44;;;17.27;79.96
58668;BME280;59852;43.086;25.634;2023-05-23T07:13:08;98683.25;;;17.26;78.71
58668;BME280;59852;43.086;25.634;2023-05-23T07:15:33;98676.47;;;17.06;79.13
58668;BME280;59852;43.086;25.634;2023-05-23T07:17:58;98672.69;;;17.08;78.52
58668;BME280;59852;43.086;25.634;2023-05-23T07:20:24;98671.34;;;17.22;76.71
58668;BME280;59852;43.086;25.634;2023-05-23T07:22:49;98671.13;;;17.15;77.42
58668;BME280;59852;43.086;25.634;2023-05-23T07:25:16;98664.63;;;17.10;78.03
58668;BME280;59852;43.086;25.634;2023-05-23T07:27:41;98662.91;;;17.44;75.73
58668;BME280;59852;43.086;25.634;2023-05-23T07:30:06;98665.84;;;17.67;73.16
58668;BME280;59852;43.086;25.634;2023-05-23T07:32:33;98663.56;;;17.90;73.70
58668;BME280;59852;43.086;25.634;2023-05-23T07:34:59;98663.38;;;18.26;74.38
58668;BME280;59852;43.086;25.634;2023-05-23T07:37:24;98664.19;;;18.26;72.54
58668;BME280;59852;43.086;25.634;2023-05-23T07:39:51;98658.06;;;18.26;71.32
58668;BME280;59852;43.086;25.634;2023-05-23T07:42:16;98658.13;;;18.42;70.40
58668;BME280;59852;43.086;25.634;2023-05-23T07:44:42;98651.03;;;18.51;68.96
58668;BME280;59852;43.086;25.634;2023-05-23T07:47:07;98660.66;;;18.52;69.35
58668;BME280;59852;43.086;25.634;2023-05-23T07:49:32;98667.25;;;18.56;68.82
58668;BME280;59852;43.086;25.634;2023-05-23T07:51:58;98656.38;;;18.59;70.40
58668;BME280;59852;43.086;25.634;2023-05-23T07:54:23;98656.16;;;18.44;68.39
58668;BME280;59852;43.086;25.634;2023-05-23T07:56:49;98656.31;;;18.43;68.75
58668;BME280;59852;43.086;25.634;2023-05-23T07:59:14;98659.22;;;18.74;70.57
58668;BME280;59852;43.086;25.634;2023-05-23T08:01:39;98649.25;;;18.59;69.97
58668;BME280;59852;43.086;25.634;2023-05-23T08:04:06;98652.28;;;18.81;68.40
58668;BME280;59852;43.086;25.634;2023-05-23T08:06:31;98651.63;;;18.79;67.80
58668;BME280;59852;43.086;25.634;2023-05-23T08:08:57;98641.84;;;18.96;67.29
58668;BME280;59852;43.086;25.634;2023-05-23T08:11:22;98640.84;;;18.97;65.72
58668;BME280;59852;43.086;25.634;2023-05-23T08:13:48;98646.69;;;19.08;68.23
58668;BME280;59852;43.086;25.634;2023-05-23T08:16:13;98647.66;;;19.07;65.26
58668;BME280;59852;43.086;25.634;2023-05-23T08:18:38;98636.56;;;19.12;67.07
58668;BME280;59852;43.086;25.634;2023-05-23T08:21:04;98641.34;;;19.33;66.31
58668;BME280;59852;43.086;25.634;2023-05-23T08:23:29;98640.38;;;19.58;66.06
58668;BME280;59852;43.086;25.634;2023-05-23T08:25:55;98642.88;;;19.19;63.83
58668;BME280;59852;43.086;25.634;2023-05-23T08:28:21;98638.53;;;19.59;65.27
58668;BME280;59852;43.086;25.634;2023-05-23T08:30:46;98634.19;;;19.66;63.60
58668;BME280;59852;43.086;25.634;2023-05-23T08:33:12;98633.88;;;19.53;65.32
58668;BME280;59852;43.086;25.634;2023-05-23T08:35:37;98635.81;;;19.75;64.87
58668;BME280;59852;43.086;25.634;2023-05-23T08:38:04;98628.84;;;19.82;63.04
58668;BME280;59852;43.086;25.634;2023-05-23T08:40:31;98620.25;;;19.80;62.00
58668;BME280;59852;43.086;25.634;2023-05-23T08:42:57;98634.97;;;19.91;63.03
58668;BME280;59852;43.086;25.634;2023-05-23T08:45:23;98628.19;;;19.88;61.33
58668;BME280;59852;43.086;25.634;2023-05-23T08:47:48;98631.66;;;19.89;62.06
58668;BME280;59852;43.086;25.634;2023-05-23T08:50:15;98631.44;;;20.07;62.29
58668;BME280;59852;43.086;25.634;2023-05-23T08:55:12;98628.78;;;20.07;60.07
58668;BME280;59852;43.086;25.634;2023-05-23T08:57:39;98624.75;;;20.11;58.20
58668;BME280;59852;43.086;25.634;2023-05-23T09:00:08;98631.28;;;20.00;57.98
58668;BME280;59852;43.086;25.634;2023-05-23T09:02:38;98629.88;;;20.20;59.11
58668;BME280;59852;43.086;25.634;2023-05-23T09:05:04;98629.25;;;20.49;60.05
58668;BME280;59852;43.086;25.634;2023-05-23T09:07:29;98634.75;;;20.48;59.80
58668;BME280;59852;43.086;25.634;2023-05-23T09:09:55;98634.19;;;20.52;58.52
58668;BME280;59852;43.086;25.634;2023-05-23T09:12:21;98625.00;;;20.32;59.32
58668;BME280;59852;43.086;25.634;2023-05-23T09:14:47;98626.50;;;20.66;60.92
58668;BME280;59852;43.086;25.634;2023-05-23T09:17:19;98624.53;;;20.59;58.89
58668;BME280;59852;43.086;25.634;2023-05-23T09:19:44;98623.25;;;20.78;59.85
58668;BME280;59852;43.086;25.634;2023-05-23T09:22:11;98618.75;;;20.56;59.38
58668;BME280;59852;43.086;25.634;2023-05-23T09:24:36;98626.31;;;20.36;60.21
58668;BME280;59852;43.086;25.634;2023-05-23T09:27:04;98620.44;;;20.49;58.87
58668;BME280;59852;43.086;25.634;2023-05-23T09:29:30;98621.34;;;20.87;59.18
58668;BME280;59852;43.086;25.634;2023-05-23T09:34:56;98618.50;;;20.88;58.78
58668;BME280;59852;43.086;25.634;2023-05-23T09:37:44;98618.88;;;21.23;55.43
58668;BME280;59852;43.086;25.634;2023-05-23T09:40:10;98627.59;;;20.48;57.29
58668;BME280;59852;43.086;25.634;2023-05-23T09:42:42;98625.38;;;20.21;59.86
58668;BME280;59852;43.086;25.634;2023-05-23T09:45:09;98620.41;;;20.18;59.96
58668;BME280;59852;43.086;25.634;2023-05-23T09:47:34;98627.38;;;20.58;59.61
58668;BME280;59852;43.086;25.634;2023-05-23T09:50:00;98622.69;;;20.83;58.68
58668;BME280;59852;43.086;25.634;2023-05-23T09:52:25;98614.91;;;21.04;57.15
58668;BME280;59852;43.086;25.634;2023-05-23T09:54:53;98614.66;;;20.45;60.15
58668;BME280;59852;43.086;25.634;2023-05-23T09:57:18;98609.78;;;20.57;61.13
58668;BME280;59852;43.086;25.634;2023-05-23T09:59:54;98602.41;;;20.36;60.38
58668;BME280;59852;43.086;25.634;2023-05-23T10:02:39;98605.72;;;20.07;61.86
58668;BME280;59852;43.086;25.634;2023-05-23T10:05:15;98605.22;;;19.95;60.27
58668;BME280;59852;43.086;25.634;2023-05-23T10:07:46;98606.03;;;20.35;59.73
58668;BME280;59852;43.086;25.634;2023-05-23T10:10:12;98599.97;;;20.57;57.88
58668;BME280;59852;43.086;25.634;2023-05-23T10:15:03;98598.69;;;20.76;57.79
58668;BME280;59852;43.086;25.634;2023-05-23T10:17:38;98603.44;;;20.81;57.79
58668;BME280;59852;43.086;25.634;2023-05-23T10:20:06;98593.78;;;21.03;56.92
58668;BME280;59852;43.086;25.634;2023-05-23T10:22:34;98597.28;;;21.03;57.16
58668;BME280;59852;43.086;25.634;2023-05-23T10:25:00;98595.59;;;20.65;58.53
58668;BME280;59852;43.086;25.634;2023-05-23T10:27:26;98591.97;;;21.03;57.13
58668;BME280;59852;43.086;25.634;2023-05-23T10:29:51;98589.81;;;21.22;54.04
58668;BME280;59852;43.086;25.634;2023-05-23T10:32:17;98587.59;;;20.65;57.41
58668;BME280;59852;43.086;25.634;2023-05-23T10:34:55;98587.16;;;20.61;58.67
58668;BME280;59852;43.086;25.634;2023-05-23T10:37:26;98582.31;;;21.25;56.22
58668;BME280;59852;43.086;25.634;2023-05-23T10:39:56;98585.84;;;20.80;55.57
58668;BME280;59852;43.086;25.634;2023-05-23T10:44:51;98570.69;;;21.41;53.49
58668;BME280;59852;43.086;25.634;2023-05-23T10:47:26;98580.81;;;21.23;54.32
58668;BME280;59852;43.086;25.634;2023-05-23T10:49:54;98577.34;;;20.84;55.48
58668;BME280;59852;43.086;25.634;2023-05-23T10:52:21;98578.09;;;20.93;55.75
58668;BME280;59852;43.086;25.634;2023-05-23T10:54:51;98581.31;;;20.66;55.67
58668;BME280;59852;43.086;25.634;2023-05-23T10:57:20;98575.16;;;20.34;56.23
58668;BME280;59852;43.086;25.634;2023-05-23T10:59:47;98580.84;;;20.31;56.95
58668;BME280;59852;43.086;25.634;2023-05-23T11:02:15;98585.25;;;20.16;56.69
58668;BME280;59852;43.086;25.634;2023-05-23T11:04:40;98589.78;;;20.07;56.59
58668;BME280;59852;43.086;25.634;2023-05-23T11:07:27;98578.66;;;20.03;57.61
58668;BME280;59852;43.086;25.634;2023-05-23T11:12:44;98573.56;;;20.25;59.24
58668;BME280;59852;43.086;25.634;2023-05-23T11:20:16;98577.47;;;20.45;59.58
58668;BME280;59852;43.086;25.634;2023-05-23T11:23:08;98575.41;;;20.55;61.69
58668;BME280;59852;43.086;25.634;2023-05-23T11:25:39;98570.78;;;20.72;60.32
58668;BME280;59852;43.086;25.634;2023-05-23T11:28:11;98578.44;;;20.90;59.06
58668;BME280;59852;43.086;25.634;2023-05-23T11:30:37;98570.34;;;21.06;59.64
58668;BME280;59852;43.086;25.634;2023-05-23T11:33:09;98576.28;;;20.71;57.48
58668;BME280;59852;43.086;25.634;2023-05-23T11:35:38;98578.72;;;20.57;59.42
58668;BME280;59852;43.086;25.634;2023-05-23T11:38:03;98573.28;;;20.51;58.87
58668;BME280;59852;43.086;25.634;2023-05-23T11:40:33;98575.13;;;20.42;59.64
58668;BME280;59852;43.086;25.634;2023-05-23T11:42:59;98568.03;;;20.34;58.57
58668;BME280;59852;43.086;25.634;2023-05-23T11:45:25;98569.38;;;20.30;60.89
58668;BME280;59852;43.086;25.634;2023-05-23T11:47:51;98575.34;;;20.32;59.98
58668;BME280;59852;43.086;25.634;2023-05-23T11:50:16;98579.47;;;20.35;59.21
58668;BME280;59852;43.086;25.634;2023-05-23T11:52:44;98574.69;;;20.30;59.76
58668;BME280;59852;43.086;25.634;2023-05-23T11:55:15;98574.31;;;20.11;59.81
58668;BME280;59852;43.086;25.634;2023-05-23T11:57:40;98567.25;;;19.95;61.53
58668;BME280;59852;43.086;25.634;2023-05-23T12:00:06;98564.94;;;19.92;59.09
58668;BME280;59852;43.086;25.634;2023-05-23T12:02:37;98561.72;;;20.04;58.36
58668;BME280;59852;43.086;25.634;2023-05-23T12:05:05;98561.03;;;20.11;59.06
58668;BME280;59852;43.086;25.634;2023-05-23T12:07:32;98560.06;;;20.03;60.06
58668;BME280;59852;43.086;25.634;2023-05-23T12:09:57;98558.06;;;20.05;62.58
58668;BME280;59852;43.086;25.634;2023-05-23T12:12:22;98550.84;;;19.91;62.72
58668;BME280;59852;43.086;25.634;2023-05-23T12:14:48;98556.34;;;19.90;64.21
58668;BME280;59852;43.086;25.634;2023-05-23T12:17:13;98551.19;;;19.88;62.33
58668;BME280;59852;43.086;25.634;2023-05-23T12:19:39;98553.03;;;19.88;61.68
58668;BME280;59852;43.086;25.634;2023-05-23T12:22:04;98551.31;;;19.95;60.55
58668;BME280;59852;43.086;25.634;2023-05-23T12:24:31;98546.53;;;19.90;60.31
58668;BME280;59852;43.086;25.634;2023-05-23T12:26:57;98538.56;;;19.90;60.51
58668;BME280;59852;43.086;25.634;2023-05-23T12:29:29;98539.00;;;19.71;61.01
58668;BME280;59852;43.086;25.634;2023-05-23T12:31:57;98538.63;;;19.82;62.32
58668;BME280;59852;43.086;25.634;2023-05-23T12:34:22;98543.31;;;20.03;62.17
58668;BME280;59852;43.086;25.634;2023-05-23T12:36:48;98530.81;;;20.12;60.97
58668;BME280;59852;43.086;25.634;2023-05-23T12:39:13;98533.88;;;20.54;61.05
58668;BME280;59852;43.086;25.634;2023-05-23T12:41:43;98532.28;;;20.68;58.53
58668;BME280;59852;43.086;25.634;2023-05-23T12:44:08;98534.84;;;20.99;57.62
58668;BME280;59852;43.086;25.634;2023-05-23T12:46:34;98530.53;;;21.13;58.94
58668;BME280;59852;43.086;25.634;2023-05-23T12:48:59;98527.31;;;21.03;58.40
58668;BME280;59852;43.086;25.634;2023-05-23T12:51:25;98519.78;;;21.44;56.32
58668;BME280;59852;43.086;25.634;2023-05-23T12:53:50;98520.16;;;21.56;55.46
58668;BME280;59852;43.086;25.634;2023-05-23T12:56:15;98520.00;;;21.19;54.81
58668;BME280;59852;43.086;25.634;2023-05-23T12:58:41;98515.56;;;21.35;56.68
58668;BME280;59852;43.086;25.634;2023-05-23T13:01:07;98513.91;;;21.34;56.91
58668;BME280;59852;43.086;25.634;2023-05-23T13:03:32;98509.91;;;21.00;57.27
58668;BME280;59852;43.086;25.634;2023-05-23T13:05:57;98514.53;;;20.83;60.12
58668;BME280;59852;43.086;25.634;2023-05-23T13:08:23;98516.47;;;20.75;59.08
58668;BME280;59852;43.086;25.634;2023-05-23T13:10:49;98516.47;;;20.52;58.15
58668;BME280;59852;43.086;25.634;2023-05-23T13:13:14;98525.75;;;20.56;58.43
58668;BME280;59852;43.086;25.634;2023-05-23T13:15:39;98520.97;;;20.51;60.15
58668;BME280;59852;43.086;25.634;2023-05-23T13:18:05;98514.50;;;20.69;57.08